Time;durP1;ratioP1;P1;durP2;ratioP2;P2;SDS_P1;SDS_P2;PMS_P1;PMS_P2;Temp;Humidity;BMP_temperature;BMP_pressure;BME280_temperature;BME280_humidity;BME280_pressure;Samples;Min_cycle;Max_cycle;Signal;HPM_P1;HPM_P2
2022/08/25 00:01:57;;;;;;;4.23;3.40;;;23.60;96.10;;;;;;5076031;28;20984;-55
2022/08/25 00:04:25;;;;;;;4.20;3.70;;;23.50;96.10;;;;;;5076167;28;20444;-55
2022/08/25 00:06:54;;;;;;;4.00;3.70;;;23.50;96.60;;;;;;5076119;28;20566;-56
2022/08/25 00:09:25;;;;;;;3.93;3.47;;;23.40;97.00;;;;;;5076044;28;20444;-55
2022/08/25 00:11:53;;;;;;;4.10;3.40;;;23.30;97.20;;;;;;5076026;28;21094;-55
2022/08/25 00:14:23;;;;;;;3.60;3.40;;;23.30;97.50;;;;;;5076177;28;20483;-56
2022/08/25 00:16:51;;;;;;;4.67;4.27;;;23.20;97.70;;;;;;5075999;28;20432;-55
2022/08/25 00:19:21;;;;;;;4.13;3.83;;;23.20;97.70;;;;;;5076284;28;20459;-56
2022/08/25 00:21:49;;;;;;;3.60;3.30;;;23.10;98.30;;;;;;5076196;28;20571;-55
2022/08/25 00:24:18;;;;;;;3.60;3.30;;;22.90;98.80;;;;;;5075907;28;20593;-56
2022/08/25 00:26:48;;;;;;;3.80;3.50;;;22.90;98.90;;;;;;5076082;28;20444;-55
2022/08/25 00:29:16;;;;;;;5.10;3.47;;;23.30;97.70;;;;;;5075551;28;20444;-55
2022/08/25 00:31:44;;;;;;;4.10;3.80;;;23.20;98.70;;;;;;5075568;28;20445;-56
2022/08/25 00:34:13;;;;;;;3.73;3.43;;;23.00;99.10;;;;;;5075835;28;20484;-55
2022/08/25 00:36:41;;;;;;;4.97;3.47;;;22.90;99.60;;;;;;5075369;28;20544;-55
2022/08/25 00:39:09;;;;;;;4.30;3.90;;;22.70;99.90;;;;;;5075340;28;20444;-55
2022/08/25 00:41:38;;;;;;;3.70;3.40;;;22.60;99.90;;;;;;5075313;28;20481;-55
2022/08/25 00:44:09;;;;;;;6.57;4.03;;;22.60;99.90;;;;;;5074839;28;20526;-56
2022/08/25 00:46:39;;;;;;;3.97;3.57;;;22.80;99.90;;;;;;5075241;28;20432;-55
2022/08/25 00:49:11;;;;;;;4.27;3.87;;;22.90;99.90;;;;;;5075572;28;20440;-55
2022/08/25 00:51:42;;;;;;;4.10;3.80;;;22.70;99.90;;;;;;5075191;28;20500;-56
2022/08/25 00:54:16;;;;;;;4.20;3.60;;;22.50;99.90;;;;;;5075586;28;20534;-55
2022/08/25 00:56:44;;;;;;;4.60;3.93;;;22.50;99.90;;;;;;5075522;28;20429;-55
2022/08/25 00:59:13;;;;;;;4.20;3.80;;;22.50;99.90;;;;;;5075103;28;20448;-55
2022/08/25 01:01:40;;;;;;;4.50;4.10;;;22.60;99.90;;;;;;5075062;28;20437;-55
2022/08/25 01:04:08;;;;;;;4.07;3.67;;;22.50;99.90;;;;;;5075171;28;20456;-56
2022/08/25 01:06:39;;;;;;;5.80;5.30;;;22.50;99.90;;;;;;5075185;28;20455;-55
2022/08/25 01:09:07;;;;;;;3.90;3.60;;;22.40;99.90;;;;;;5075195;28;20436;-55
2022/08/25 01:11:34;;;;;;;4.70;4.30;;;22.40;99.90;;;;;;5075074;28;20543;-55
2022/08/25 01:14:05;;;;;;;4.13;3.77;;;22.40;99.90;;;;;;5074400;28;20483;-55
2022/08/25 01:16:34;;;;;;;4.03;3.73;;;22.40;99.90;;;;;;5074907;28;20432;-56
2022/08/25 01:19:01;;;;;;;4.73;3.87;;;22.30;99.90;;;;;;5074678;28;20479;-55
2022/08/25 01:21:31;;;;;;;4.20;3.80;;;22.30;99.90;;;;;;5074795;28;20480;-56
2022/08/25 01:24:00;;;;;;;4.60;4.20;;;22.40;99.90;;;;;;5074779;28;20483;-56
2022/08/25 01:26:30;;;;;;;4.77;4.37;;;22.40;99.90;;;;;;5074955;28;20444;-55
2022/08/25 01:31:44;;;;;;;4.87;4.30;;;22.00;99.90;;;;;;5074566;28;21122;-55
2022/08/25 01:34:12;;;;;;;4.60;4.20;;;21.70;99.90;;;;;;5074385;28;20476;-55
2022/08/25 01:36:42;;;;;;;4.70;4.30;;;21.70;99.90;;;;;;5074483;28;20452;-55
2022/08/25 01:39:10;;;;;;;5.07;4.20;;;21.90;99.90;;;;;;5074430;28;20949;-55
2022/08/25 01:41:54;;;;;;;5.30;4.53;;;21.80;99.90;;;;;;5074010;28;20476;-55
2022/08/25 01:44:21;;;;;;;4.97;4.53;;;21.80;99.90;;;;;;5073836;28;20479;-55
2022/08/25 01:46:48;;;;;;;4.90;3.80;;;21.80;99.90;;;;;;5074317;28;20453;-55
2022/08/25 01:49:15;;;;;;;6.30;3.70;;;21.60;99.90;;;;;;5074442;28;20798;-55
2022/08/25 01:51:52;;;;;;;5.10;3.80;;;21.70;99.90;;;;;;5074152;28;20825;-55
2022/08/25 01:54:19;;;;;;;6.10;4.60;;;21.60;99.90;;;;;;5073807;28;20872;-55
2022/08/25 01:56:46;;;;;;;4.37;4.00;;;21.60;99.90;;;;;;5073541;28;20449;-55
2022/08/25 01:59:16;;;;;;;7.37;4.53;;;21.40;99.90;;;;;;5074358;28;20551;-55
2022/08/25 02:01:43;;;;;;;4.83;4.27;;;21.50;99.90;;;;;;5074005;28;20515;-55
2022/08/25 02:04:11;;;;;;;4.03;3.73;;;21.70;99.90;;;;;;5074157;28;20444;-55
2022/08/25 02:06:38;;;;;;;5.10;4.60;;;21.70;99.90;;;;;;5074076;28;20535;-55
2022/08/25 02:09:09;;;;;;;5.40;4.90;;;21.70;99.90;;;;;;5074091;28;20445;-55
2022/08/25 02:11:39;;;;;;;4.77;4.37;;;21.80;99.90;;;;;;5073897;28;20537;-55
2022/08/25 02:14:06;;;;;;;5.80;4.13;;;22.10;99.90;;;;;;5074144;28;20483;-55
2022/08/25 02:16:36;;;;;;;4.30;4.00;;;22.30;99.90;;;;;;5073852;28;20521;-55
2022/08/25 02:19:05;;;;;;;4.70;4.30;;;22.10;99.90;;;;;;5073595;28;20443;-55
2022/08/25 02:21:34;;;;;;;5.00;4.53;;;21.70;99.90;;;;;;5073686;28;20468;-55
2022/08/25 02:24:01;;;;;;;4.80;3.43;;;21.60;99.90;;;;;;5073842;28;20527;-55
2022/08/25 02:26:30;;;;;;;5.07;4.33;;;21.50;99.90;;;;;;5073356;28;20452;-55
2022/08/25 02:28:57;;;;;;;4.37;3.93;;;21.50;99.90;;;;;;5073578;28;20451;-55
2022/08/25 02:31:26;;;;;;;4.33;4.00;;;21.40;99.90;;;;;;5073662;28;20496;-56
2022/08/25 02:33:53;;;;;;;5.03;4.10;;;21.50;99.90;;;;;;5073093;28;20459;-55
2022/08/25 02:36:22;;;;;;;5.50;5.10;;;21.80;99.90;;;;;;5073521;28;20502;-56
2022/08/25 02:38:49;;;;;;;5.10;4.60;;;21.90;99.90;;;;;;5073635;28;20448;-55
2022/08/25 02:41:19;;;;;;;5.03;4.60;;;21.90;99.90;;;;;;5073400;28;20476;-55
2022/08/25 02:43:48;;;;;;;4.60;4.20;;;22.00;99.90;;;;;;5073112;28;20452;-55
2022/08/25 02:46:18;;;;;;;4.10;3.73;;;21.90;99.90;;;;;;5073562;28;20429;-55
2022/08/25 02:48:46;;;;;;;4.90;4.50;;;21.70;99.90;;;;;;5073501;28;20459;-55
2022/08/25 02:51:15;;;;;;;8.80;4.27;;;21.60;99.90;;;;;;5072992;28;20726;-55
2022/08/25 02:53:44;;;;;;;4.90;3.83;;;21.50;99.90;;;;;;5073009;28;20544;-55
2022/08/25 02:56:13;;;;;;;5.10;4.60;;;21.30;99.90;;;;;;5073365;28;20559;-55
2022/08/25 02:58:41;;;;;;;6.20;3.97;;;21.20;99.90;;;;;;5073012;28;21005;-56
2022/08/25 03:01:11;;;;;;;6.23;5.10;;;21.60;99.90;;;;;;5073161;28;20468;-55
2022/08/25 03:03:39;;;;;;;5.30;4.53;;;21.60;99.90;;;;;;5073382;28;20451;-56
2022/08/25 03:06:07;;;;;;;5.20;4.80;;;21.70;99.90;;;;;;5073228;28;20472;-55
2022/08/25 03:08:35;;;;;;;6.43;4.90;;;21.70;99.90;;;;;;5076938;28;20947;-56
2022/08/25 03:11:02;;;;;;;4.80;4.40;;;22.10;99.90;;;;;;5077392;28;20820;-55
2022/08/25 03:13:29;;;;;;;4.40;4.00;;;22.00;99.90;;;;;;5077057;28;20504;-56
2022/08/25 03:15:56;;;;;;;4.40;4.00;;;;;;;;;;5077124;28;20480;-55
2022/08/25 03:18:24;;;;;;;5.53;5.03;;;22.20;99.90;;;;;;5076903;28;20997;-55
2022/08/25 03:20:52;;;;;;;5.20;4.70;;;21.80;99.90;;;;;;5077133;28;20537;-55
2022/08/25 03:23:19;;;;;;;4.60;4.20;;;21.50;99.90;;;;;;5077057;28;20456;-56
2022/08/25 03:28:32;;;;;;;4.77;4.27;;;21.30;99.90;;;;;;5076864;28;20403;-56
2022/08/25 03:30:59;;;;;;;5.03;4.53;;;20.80;99.90;;;;;;5076673;28;20499;-56
2022/08/25 03:33:28;;;;;;;5.20;4.70;;;20.90;99.90;;;;;;5076578;28;20420;-56
2022/08/25 03:35:55;;;;;;;4.60;4.20;;;21.00;99.90;;;;;;5076401;28;20488;-55
2022/08/25 03:38:22;;;;;;;4.27;3.80;;;21.00;99.90;;;;;;5077171;28;20838;-55
2022/08/25 03:40:49;;;;;;;5.70;5.20;;;21.40;99.90;;;;;;5076380;28;20479;-55
2022/08/25 03:43:17;;;;;;;5.10;4.63;;;21.70;99.90;;;;;;5076611;28;20547;-55
2022/08/25 03:45:45;;;;;;;5.03;4.53;;;21.90;99.90;;;;;;5076258;28;20982;-55
2022/08/25 03:48:13;;;;;;;5.00;4.47;;;21.90;99.90;;;;;;5076236;28;20487;-55
2022/08/25 03:50:46;;;;;;;5.70;5.20;;;21.80;99.90;;;;;;5076143;28;20468;-56
2022/08/25 03:53:13;;;;;;;5.17;4.77;;;21.60;99.90;;;;;;5076582;28;20859;-55
2022/08/25 03:55:41;;;;;;;4.90;4.50;;;21.50;99.90;;;;;;5076486;28;20490;-55
2022/08/25 03:58:09;;;;;;;5.67;5.17;;;21.50;99.90;;;;;;5076075;28;20444;-56
2022/08/25 04:00:36;;;;;;;5.13;4.63;;;21.50;99.90;;;;;;5075954;28;20559;-55
2022/08/25 04:03:03;;;;;;;6.23;5.33;;;21.50;99.90;;;;;;5076449;28;20539;-55
2022/08/25 04:05:30;;;;;;;6.80;4.67;;;21.60;99.90;;;;;;5076234;28;20441;-56
2022/08/25 04:08:00;;;;;;;5.63;4.47;;;21.40;99.90;;;;;;5076188;28;20444;-56
2022/08/25 04:10:27;;;;;;;5.20;4.57;;;21.30;99.90;;;;;;5075861;28;20833;-55
2022/08/25 04:12:54;;;;;;;5.50;4.80;;;21.50;99.90;;;;;;5075732;28;20928;-55
2022/08/25 04:15:22;;;;;;;5.37;4.87;;;21.70;99.90;;;;;;5076014;28;20567;-56
2022/08/25 04:17:49;;;;;;;6.07;5.47;;;21.80;99.90;;;;;;5075766;28;21006;-55
2022/08/25 04:20:17;;;;;;;5.70;5.20;;;21.60;99.90;;;;;;5075124;28;20543;-55
2022/08/25 04:22:44;;;;;;;4.97;4.57;;;21.30;99.90;;;;;;5075802;28;20546;-55
2022/08/25 04:25:14;;;;;;;5.53;4.77;;;21.10;99.90;;;;;;5076054;28;20532;-55
2022/08/25 04:27:41;;;;;;;6.90;5.57;;;21.00;99.90;;;;;;5075918;28;20472;-55
2022/08/25 04:30:10;;;;;;;7.40;5.90;;;21.00;99.90;;;;;;5075756;28;20468;-55
2022/08/25 04:32:37;;;;;;;9.70;5.63;;;20.60;99.90;;;;;;5075879;28;20452;-55
2022/08/25 04:35:05;;;;;;;5.30;4.80;;;20.70;99.90;;;;;;5075456;28;20843;-55
2022/08/25 04:37:33;;;;;;;5.77;5.00;;;20.80;99.90;;;;;;5075642;28;20564;-55
2022/08/25 04:40:00;;;;;;;5.20;4.73;;;20.90;99.90;;;;;;5075291;28;20805;-55
2022/08/25 04:42:28;;;;;;;7.17;5.20;;;21.10;99.90;;;;;;5075710;28;20452;-56
2022/08/25 04:44:55;;;;;;;7.57;4.77;;;21.10;99.90;;;;;;5074392;28;20470;-56
2022/08/25 04:47:23;;;;;;;5.80;5.20;;;21.20;99.90;;;;;;5075379;28;20778;-56
2022/08/25 04:49:51;;;;;;;7.53;5.80;;;20.80;99.90;;;;;;5075618;28;20533;-55
2022/08/25 04:52:18;;;;;;;5.93;5.43;;;20.90;99.90;;;;;;5075242;28;20890;-55
2022/08/25 04:54:45;;;;;;;7.93;5.50;;;20.90;99.90;;;;;;5074993;28;20474;-55
2022/08/25 04:57:12;;;;;;;6.10;5.50;;;20.70;99.90;;;;;;5075487;28;20440;-55
2022/08/25 04:59:41;;;;;;;6.07;5.47;;;20.60;99.90;;;;;;5074977;28;20512;-55
2022/08/25 05:02:08;;;;;;;7.00;6.37;;;20.60;99.90;;;;;;5075011;28;20475;-56
2022/08/25 05:04:36;;;;;;;7.20;5.60;;;20.60;99.90;;;;;;5075268;28;20621;-56
2022/08/25 05:07:04;;;;;;;6.40;5.80;;;20.70;99.90;;;;;;5074670;28;20484;-55
2022/08/25 05:09:32;;;;;;;8.00;6.17;;;20.60;99.90;;;;;;5075005;28;20499;-55
2022/08/25 05:11:59;;;;;;;6.63;6.03;;;20.70;99.90;;;;;;5075125;28;20579;-55
2022/08/25 05:14:26;;;;;;;6.60;6.00;;;20.80;99.90;;;;;;5074734;28;20457;-55
2022/08/25 05:16:55;;;;;;;6.90;6.30;;;20.70;99.90;;;;;;5074786;28;20486;-55
2022/08/25 05:19:23;;;;;;;7.40;5.60;;;20.60;99.90;;;;;;5074587;28;20455;-55
2022/08/25 05:21:51;;;;;;;7.20;5.83;;;20.70;99.90;;;;;;5074649;28;20452;-55
2022/08/25 05:24:19;;;;;;;6.70;6.10;;;20.70;99.90;;;;;;5074551;28;20521;-56
2022/08/25 05:26:46;;;;;;;7.17;6.20;;;20.70;99.90;;;;;;5074321;28;20543;-55
2022/08/25 05:29:14;;;;;;;7.33;6.10;;;20.50;99.90;;;;;;5074328;28;20451;-55
2022/08/25 05:31:41;;;;;;;8.07;7.37;;;20.60;99.90;;;;;;5074221;28;20479;-56
2022/08/25 05:34:10;;;;;;;8.00;7.30;;;20.50;99.90;;;;;;5074181;28;20919;-56
2022/08/25 05:36:41;;;;;;;6.90;6.30;;;20.40;99.90;;;;;;5074096;28;20476;-55
2022/08/25 05:39:09;;;;;;;7.43;6.73;;;20.40;99.90;;;;;;5074323;28;20432;-56
2022/08/25 05:41:36;;;;;;;7.77;6.50;;;20.50;99.90;;;;;;5074238;28;20476;-56
2022/08/25 05:44:04;;;;;;;7.53;6.73;;;20.60;99.90;;;;;;5073664;28;20543;-55
2022/08/25 05:46:31;;;;;;;8.07;7.27;;;20.70;99.90;;;;;;5074337;28;20516;-55
2022/08/25 05:48:58;;;;;;;9.43;7.80;;;20.80;99.90;;;;;;5073808;28;20455;-55
2022/08/25 05:51:27;;;;;;;7.63;6.90;;;21.00;99.90;;;;;;5074155;28;20585;-55
2022/08/25 05:53:54;;;;;;;6.53;5.93;;;20.80;99.90;;;;;;5074094;28;20810;-55
2022/08/25 05:56:21;;;;;;;6.70;6.00;;;21.10;99.90;;;;;;5073646;28;20516;-56
2022/08/25 05:58:50;;;;;;;8.30;6.00;;;21.20;99.90;;;;;;5073754;28;20448;-55
2022/08/25 06:04:08;;;;;;;8.33;7.53;;;21.50;99.90;;;;;;5073816;28;20969;-55
2022/08/25 06:06:36;;;;;;;8.67;7.13;;;21.40;99.90;;;;;;5073805;28;20440;-55
2022/08/25 06:09:07;;;;;;;7.23;6.53;;;21.30;99.90;;;;;;5073553;28;20451;-55
2022/08/25 06:11:35;;;;;;;8.53;7.50;;;21.20;99.90;;;;;;5073753;28;20483;-55
2022/08/25 06:14:03;;;;;;;10.30;7.30;;;21.20;99.90;;;;;;5073153;28;20931;-55
2022/08/25 06:16:30;;;;;;;7.93;7.13;;;21.20;99.90;;;;;;5073485;28;20484;-57
2022/08/25 06:18:58;;;;;;;7.57;6.90;;;21.10;99.90;;;;;;5073428;28;20957;-56
2022/08/25 06:21:25;;;;;;;7.13;6.43;;;20.90;99.90;;;;;;5073267;28;20478;-56
2022/08/25 06:23:54;;;;;;;9.63;7.80;;;20.90;99.90;;;;;;5073529;28;20535;-55
2022/08/25 06:26:21;;;;;;;9.50;7.17;;;20.90;99.90;;;;;;5073266;28;20973;-55
2022/08/25 06:28:49;;;;;;;9.00;7.57;;;20.90;99.90;;;;;;5073662;28;20480;-55
2022/08/25 06:31:17;;;;;;;10.70;8.03;;;21.00;99.90;;;;;;5072800;28;20882;-55
2022/08/25 06:33:45;;;;;;;14.20;8.40;;;21.00;99.90;;;;;;5073058;28;20452;-55
2022/08/25 06:36:12;;;;;;;8.53;7.33;;;21.20;99.90;;;;;;5073498;28;20571;-55
2022/08/25 06:38:40;;;;;;;8.43;7.50;;;21.20;99.90;;;;;;5073062;28;20538;-56
2022/08/25 06:41:09;;;;;;;8.40;7.30;;;21.20;99.90;;;;;;5072611;28;20508;-55
2022/08/25 06:43:39;;;;;;;7.63;6.93;;;21.40;99.90;;;;;;5073196;28;20456;-55
2022/08/25 06:46:10;;;;;;;8.50;7.10;;;21.40;99.90;;;;;;5072597;28;21003;-55
2022/08/25 06:48:38;;;;;;;10.27;8.30;;;21.50;99.90;;;;;;5073224;28;20873;-55
2022/08/25 06:51:09;;;;;;;8.60;7.27;;;21.60;99.90;;;;;;5073065;28;20474;-55
2022/08/25 06:53:36;;;;;;;8.57;7.77;;;22.00;99.90;;;;;;5073249;28;20450;-55
2022/08/25 06:56:05;;;;;;;7.57;6.90;;;22.40;99.90;;;;;;5072692;28;20566;-55
2022/08/25 06:58:34;;;;;;;9.20;7.67;;;22.40;99.90;;;;;;5072578;28;20535;-55
2022/08/25 07:01:08;;;;;;;8.40;7.60;;;22.30;99.90;;;;;;5072845;28;20967;-56
2022/08/25 07:03:35;;;;;;;6.50;5.90;;;22.40;99.90;;;;;;5072891;28;20472;-55
2022/08/25 07:06:03;;;;;;;7.20;6.50;;;22.50;99.90;;;;;;5072636;28;20466;-55
2022/08/25 07:08:31;;;;;;;9.70;7.90;;;;;;;;;;5072928;28;20450;-55
2022/08/25 07:10:58;;;;;;;7.93;7.13;;;22.50;99.90;;;;;;5072847;28;20568;-55
2022/08/25 07:13:26;;;;;;;8.83;7.57;;;22.50;99.90;;;;;;5072537;28;20452;-55
2022/08/25 07:15:55;;;;;;;9.27;8.07;;;22.40;99.90;;;;;;5072940;28;20507;-55
2022/08/25 07:18:22;;;;;;;8.73;7.90;;;22.50;99.90;;;;;;5072683;28;20503;-55
2022/08/25 07:20:50;;;;;;;9.53;7.20;;;22.60;99.90;;;;;;5072439;28;20464;-56
2022/08/25 07:23:18;;;;;;;9.83;7.40;;;22.60;99.90;;;;;;5072329;28;20440;-55
2022/08/25 07:25:45;;;;;;;14.43;6.97;;;22.60;99.90;;;;;;5073009;28;20479;-56
2022/08/25 07:28:12;;;;;;;8.50;7.73;;;22.60;99.90;;;;;;5072611;28;21002;-56
2022/08/25 07:30:40;;;;;;;8.60;7.57;;;22.70;99.90;;;;;;5072450;28;20559;-56
2022/08/25 07:33:09;;;;;;;7.50;6.80;;;22.70;99.90;;;;;;5072878;28;20524;-56
2022/08/25 07:35:36;;;;;;;8.17;7.20;;;22.80;99.90;;;;;;5072421;28;20578;-56
2022/08/25 07:38:04;;;;;;;8.73;7.60;;;22.80;99.90;;;;;;5072807;28;20502;-55
2022/08/25 07:40:33;;;;;;;12.00;7.87;;;22.80;99.90;;;;;;5072549;28;20468;-55
2022/08/25 07:43:03;;;;;;;8.27;6.60;;;23.00;99.90;;;;;;5072788;28;20505;-55
2022/08/25 07:45:33;;;;;;;12.13;7.10;;;23.30;99.90;;;;;;5072178;28;20563;-55
2022/08/25 07:48:03;;;;;;;12.00;6.93;;;23.20;99.90;;;;;;5072670;28;20494;-56
2022/08/25 07:50:32;;;;;;;10.40;7.50;;;23.40;99.90;;;;;;5072394;28;20468;-55
2022/08/25 07:53:00;;;;;;;9.13;7.67;;;23.40;99.90;;;;;;5072537;28;20871;-56
2022/08/25 07:55:29;;;;;;;7.07;6.37;;;23.40;99.90;;;;;;5075984;28;20444;-56
2022/08/25 07:57:58;;;;;;;7.30;6.60;;;23.50;99.90;;;;;;5076337;28;20459;-56
2022/08/25 08:00:28;;;;;;;8.40;7.50;;;23.60;99.90;;;;;;5076354;28;20468;-55
2022/08/25 08:02:56;;;;;;;8.17;7.43;;;23.70;99.90;;;;;;5075989;28;20432;-55
2022/08/25 08:05:24;;;;;;;10.97;7.97;;;23.80;99.90;;;;;;5075907;28;20923;-55
2022/08/25 08:07:53;;;;;;;9.93;6.93;;;23.80;99.90;;;;;;5076228;28;20532;-55
2022/08/25 08:10:22;;;;;;;7.47;6.67;;;23.90;99.90;;;;;;5075842;28;20541;-55
2022/08/25 08:12:49;;;;;;;7.60;6.90;;;24.10;99.90;;;;;;5075657;28;20433;-55
2022/08/25 08:15:18;;;;;;;12.77;7.00;;;24.10;99.90;;;;;;5075768;28;20444;-55
2022/08/25 08:17:46;;;;;;;10.07;8.23;;;24.10;99.90;;;;;;5075545;28;20476;-55
2022/08/25 08:20:13;;;;;;;11.17;7.93;;;24.20;99.90;;;;;;5075450;28;21006;-55
2022/08/25 08:22:44;;;;;;;9.30;7.03;;;24.20;99.90;;;;;;5075599;28;20535;-56
2022/08/25 08:25:13;;;;;;;9.03;7.80;;;24.50;99.90;;;;;;5075911;28;20450;-56
2022/08/25 08:27:41;;;;;;;8.83;7.93;;;24.70;99.90;;;;;;5075792;28;20452;-55
2022/08/25 08:30:09;;;;;;;6.40;5.80;;;;;;;;;;5075602;28;20539;-56
2022/08/25 08:32:37;;;;;;;8.23;7.43;;;26.30;99.90;;;;;;5075724;28;20475;-56
2022/08/25 08:35:05;;;;;;;7.53;6.73;;;26.80;99.90;;;;;;5075317;28;20479;-56
2022/08/25 08:37:36;;;;;;;8.00;7.20;;;26.90;99.90;;;;;;5075513;28;20571;-56
2022/08/25 08:40:05;;;;;;;7.20;6.60;;;27.90;99.90;;;;;;5075558;28;20520;-55
2022/08/25 08:42:48;;;;;;;6.93;6.33;;;27.90;99.30;;;;;;5075654;28;20488;-56
2022/08/25 08:45:28;;;;;;;7.53;6.50;;;28.70;98.70;;;;;;5074788;28;20480;-56
2022/08/25 08:48:24;;;;;;;7.10;6.30;;;28.80;98.00;;;;;;5075140;28;20456;-56
2022/08/25 08:50:59;;;;;;;9.60;7.07;;;29.00;97.30;;;;;;5075410;28;20547;-56
2022/08/25 08:53:32;;;;;;;7.13;5.93;;;29.30;96.40;;;;;;5074902;28;20515;-55
2022/08/25 08:56:01;;;;;;;7.60;6.37;;;;;;;;;;5075142;28;20521;-56
2022/08/25 08:58:43;;;;;;;6.07;5.57;;;30.30;94.40;;;;;;5075211;28;20643;-55
2022/08/25 09:01:16;;;;;;;7.20;6.10;;;29.80;94.50;;;;;;5075192;28;20567;-56
2022/08/25 09:03:47;;;;;;;5.80;5.30;;;29.50;94.20;;;;;;5074939;28;20896;-55
2022/08/25 09:06:20;;;;;;;6.03;5.43;;;29.90;93.60;;;;;;5074589;28;20459;-55
2022/08/25 09:08:47;;;;;;;8.03;6.03;;;29.90;93.40;;;;;;5074567;28;20433;-55
2022/08/25 09:11:23;;;;;;;8.03;6.30;;;30.30;93.00;;;;;;5074628;28;20563;-56
2022/08/25 09:14:09;;;;;;;5.67;5.23;;;29.90;92.80;;;;;;5074632;28;20428;-55
2022/08/25 09:16:57;;;;;;;7.37;6.23;;;29.50;92.50;;;;;;5074634;28;20468;-55
2022/08/25 09:19:39;;;;;;;6.97;6.33;;;29.80;92.40;;;;;;5074623;28;20928;-55
2022/08/25 09:22:17;;;;;;;6.43;5.90;;;30.30;91.90;;;;;;5074326;28;21018;-55
2022/08/25 09:24:56;;;;;;;6.87;6.27;;;30.20;90.80;;;;;;5074420;28;20527;-55
2022/08/25 09:27:29;;;;;;;5.97;5.47;;;30.00;90.80;;;;;;5074607;28;20511;-56
2022/08/25 09:30:07;;;;;;;6.00;5.50;;;30.60;90.40;;;;;;5074212;28;20440;-55
2022/08/25 09:32:37;;;;;;;7.17;6.47;;;31.30;89.40;;;;;;5074470;28;20803;-56
2022/08/25 09:35:06;;;;;;;6.93;6.33;;;31.70;87.40;;;;;;5074167;28;20539;-56
2022/08/25 09:37:33;;;;;;;5.90;5.40;;;32.00;86.60;;;;;;5074254;28;20479;-56
2022/08/25 09:40:00;;;;;;;5.60;5.10;;;31.70;87.00;;;;;;5074283;28;20451;-56
2022/08/25 09:42:46;;;;;;;6.03;5.53;;;32.00;84.90;;;;;;5074518;28;20538;-56
2022/08/25 09:45:15;;;;;;;6.30;5.20;;;31.90;85.30;;;;;;5073812;28;20993;-56
2022/08/25 09:47:44;;;;;;;6.17;5.57;;;32.10;82.50;;;;;;5074366;28;20469;-56
2022/08/25 09:50:19;;;;;;;6.30;5.27;;;32.20;83.80;;;;;;5074032;28;20796;-56
2022/08/25 09:52:47;;;;;;;6.93;6.30;;;32.60;81.70;;;;;;5073955;28;20415;-56
2022/08/25 09:55:26;;;;;;;6.63;6.03;;;32.70;80.70;;;;;;5073993;28;20425;-56
2022/08/25 09:57:55;;;;;;;6.33;5.73;;;32.80;81.30;;;;;;5073719;28;20914;-56
2022/08/25 10:00:27;;;;;;;6.63;5.83;;;32.80;80.00;;;;;;5073722;28;20483;-56
2022/08/25 10:03:11;;;;;;;7.10;6.50;;;32.60;79.60;;;;;;5073777;28;20432;-56
2022/08/25 10:05:58;;;;;;;6.67;5.93;;;33.00;78.80;;;;;;5073556;28;20433;-56
2022/08/25 10:08:31;;;;;;;6.13;5.50;;;32.90;78.60;;;;;;5073987;28;20845;-56
2022/08/25 10:11:00;;;;;;;8.20;5.23;;;32.10;79.20;;;;;;5073516;28;21021;-56
2022/08/25 10:13:38;;;;;;;7.33;6.63;;;31.90;81.30;;;;;;5073785;28;20527;-56
2022/08/25 10:16:11;;;;;;;9.83;6.37;;;31.50;80.90;;;;;;5072743;28;20520;-56
2022/08/25 10:18:39;;;;;;;7.07;5.53;;;31.40;82.00;;;;;;5073488;28;20416;-56
2022/08/25 10:21:13;;;;;;;6.33;5.83;;;30.70;82.40;;;;;;5073415;28;20564;-56
2022/08/25 10:23:46;;;;;;;5.53;5.03;;;30.40;83.70;;;;;;5073191;28;20451;-56
2022/08/25 10:26:23;;;;;;;6.87;5.90;;;31.20;83.70;;;;;;5073749;28;20782;-56
2022/08/25 10:29:14;;;;;;;5.97;5.37;;;32.00;82.40;;;;;;5073224;28;20436;-56
2022/08/25 10:31:50;;;;;;;6.13;5.20;;;32.40;77.90;;;;;;5073543;28;20464;-56
2022/08/25 10:34:37;;;;;;;6.80;5.40;;;32.90;76.40;;;;;;5073035;28;20436;-56
2022/08/25 10:37:15;;;;;;;6.00;4.93;;;33.20;74.70;;;;;;5073362;28;20552;-57
2022/08/25 10:39:43;;;;;;;6.30;5.70;;;33.20;75.40;;;;;;5073146;28;20790;-56
2022/08/25 10:42:33;;;;;;;5.17;4.67;;;33.50;73.30;;;;;;5073404;28;20570;-56
2022/08/25 10:48:44;;;;;;;6.80;5.20;;;33.00;72.60;;;;;;5073081;28;20404;-56
2022/08/25 10:51:29;;;;;;;5.53;5.03;;;32.80;72.60;;;;;;5073281;28;20555;-56
2022/08/25 10:54:05;;;;;;;5.53;5.03;;;33.10;70.30;;;;;;5072883;28;20432;-56
2022/08/25 10:56:35;;;;;;;5.03;4.57;;;33.00;71.10;;;;;;5072941;28;20515;-56
2022/08/25 10:59:30;;;;;;;6.47;5.27;;;33.40;70.70;;;;;;5073210;28;20780;-56
2022/08/25 11:02:27;;;;;;;5.27;4.37;;;34.00;70.00;;;;;;5073249;28;20478;-56
2022/08/25 11:05:01;;;;;;;5.70;5.27;;;33.10;69.50;;;;;;5072915;28;20467;-56
2022/08/25 11:07:33;;;;;;;5.53;5.03;;;33.20;70.90;;;;;;5073136;28;20510;-56
2022/08/25 11:10:07;;;;;;;4.90;4.50;;;33.90;68.00;;;;;;5073081;28;20425;-56
2022/08/25 11:12:39;;;;;;;5.50;4.93;;;33.20;68.70;;;;;;5072582;28;20467;-57
2022/08/25 11:15:12;;;;;;;4.70;4.30;;;33.00;68.40;;;;;;5072776;28;20409;-56
2022/08/25 11:17:46;;;;;;;5.17;4.70;;;32.80;68.00;;;;;;5072751;28;20874;-56
2022/08/25 11:20:17;;;;;;;5.17;4.77;;;33.20;67.80;;;;;;5072646;28;20468;-56
2022/08/25 11:22:48;;;;;;;4.97;4.57;;;32.20;69.00;;;;;;5072863;28;20432;-57
2022/08/25 11:25:19;;;;;;;7.63;5.37;;;32.00;69.00;;;;;;5072365;28;20444;-56
2022/08/25 11:27:52;;;;;;;5.73;5.23;;;32.10;70.40;;;;;;5073803;28;20446;-56
2022/08/25 11:30:21;;;;;;;4.77;4.37;;;33.10;70.20;;;;;;5076591;28;20436;-56
2022/08/25 11:32:51;;;;;;;8.23;5.63;;;33.20;68.70;;;;;;5076793;28;20443;-56
2022/08/25 11:35:28;;;;;;;5.87;5.40;;;33.80;69.80;;;;;;5077066;28;20436;-56
2022/08/25 11:38:11;;;;;;;5.40;4.90;;;34.80;66.90;;;;;;5076504;28;21039;-56
2022/08/25 11:40:56;;;;;;;5.40;4.90;;;34.40;65.60;;;;;;5076725;28;20479;-56
2022/08/25 11:43:39;;;;;;;13.33;5.40;;;34.20;64.30;;;;;;5076761;28;20766;-56
2022/08/25 11:46:38;;;;;;;5.57;5.07;;;34.50;64.40;;;;;;5076160;28;20488;-56
2022/08/25 11:49:28;;;;;;;4.77;4.37;;;34.00;63.90;;;;;;5076132;28;20427;-56
2022/08/25 11:51:56;;;;;;;4.67;4.20;;;34.60;63.60;;;;;;5076355;28;20482;-56
2022/08/25 11:54:27;;;;;;;5.03;4.40;;;35.00;61.40;;;;;;5076315;28;20448;-56
2022/08/25 11:57:00;;;;;;;4.30;4.00;;;35.00;61.20;;;;;;5076105;28;20449;-56
2022/08/25 12:00:02;;;;;;;5.63;5.07;;;34.60;61.40;;;;;;5076292;28;20424;-56
2022/08/25 12:02:34;;;;;;;4.93;4.40;;;34.60;60.30;;;;;;5076276;28;20443;-56
2022/08/25 12:05:02;;;;;;;4.33;4.00;;;33.60;61.10;;;;;;5075953;28;20432;-55
2022/08/25 12:10:57;;;;;;;4.10;3.53;;;33.70;59.30;;;;;;5076048;28;20458;-56
2022/08/25 12:13:41;;;;;;;4.10;3.80;;;33.30;58.90;;;;;;5075945;28;20776;-56
2022/08/25 12:16:37;;;;;;;5.33;3.93;;;32.90;59.50;;;;;;5075652;28;20428;-56
2022/08/25 12:19:27;;;;;;;6.53;4.10;;;32.30;61.10;;;;;;5075841;28;20563;-55
2022/08/25 12:21:55;;;;;;;4.33;3.93;;;32.90;61.20;;;;;;5075897;28;20539;-57
2022/08/25 12:24:45;;;;;;;5.80;4.00;;;33.30;60.40;;;;;;5075408;28;20535;-55
2022/08/25 12:27:25;;;;;;;5.90;4.17;;;32.80;59.80;;;;;;5075948;28;20417;-57
2022/08/25 12:29:58;;;;;;;4.30;3.53;;;33.00;59.70;;;;;;5075450;28;20441;-55
2022/08/25 12:32:47;;;;;;;5.07;4.57;;;33.10;61.00;;;;;;5075606;28;20810;-55
2022/08/25 12:35:29;;;;;;;4.27;3.87;;;32.70;61.00;;;;;;5075611;28;20507;-55
2022/08/25 12:38:03;;;;;;;4.40;4.00;;;33.60;60.40;;;;;;5075566;28;20479;-55
2022/08/25 12:40:36;;;;;;;4.30;4.00;;;34.30;59.80;;;;;;5074675;28;20464;-55
2022/08/25 12:43:10;;;;;;;6.87;4.57;;;34.00;59.30;;;;;;5075350;28;20930;-55
2022/08/25 12:45:43;;;;;;;4.50;4.10;;;33.90;59.70;;;;;;5075069;28;20475;-55
2022/08/25 12:48:41;;;;;;;4.13;3.83;;;34.10;58.70;;;;;;5075385;28;20452;-55
2022/08/25 12:51:15;;;;;;;6.23;4.37;;;33.40;58.80;;;;;;5075294;28;20816;-55
2022/08/25 12:53:44;;;;;;;4.07;3.77;;;33.80;58.50;;;;;;5074773;28;20528;-55
2022/08/25 12:56:22;;;;;;;4.40;4.10;;;33.80;58.70;;;;;;5075105;28;20445;-55
2022/08/25 12:58:54;;;;;;;4.57;4.17;;;33.50;59.10;;;;;;5075112;28;20571;-55
2022/08/25 13:01:31;;;;;;;3.87;3.50;;;33.00;59.30;;;;;;5075156;28;20471;-55
2022/08/25 13:04:31;;;;;;;3.30;3.10;;;32.70;59.50;;;;;;5074883;28;20416;-55
2022/08/25 13:07:14;;;;;;;6.63;4.00;;;33.30;58.50;;;;;;5074907;28;20448;-56
2022/08/25 13:10:10;;;;;;;4.10;3.80;;;33.30;58.30;;;;;;5074915;28;20499;-55
2022/08/25 13:12:48;;;;;;;4.20;3.70;;;33.80;57.70;;;;;;5075064;28;20937;-55
2022/08/25 13:15:25;;;;;;;3.80;3.50;;;33.50;58.20;;;;;;5074411;28;20433;-55
2022/08/25 13:17:52;;;;;;;5.53;4.00;;;33.40;57.70;;;;;;5074848;28;20475;-55
2022/08/25 13:20:24;;;;;;;4.37;3.80;;;33.40;57.80;;;;;;5074807;28;20451;-55
2022/08/25 13:22:56;;;;;;;3.93;3.50;;;33.10;58.30;;;;;;5074444;28;20587;-55
2022/08/25 13:25:28;;;;;;;3.70;3.40;;;32.70;58.40;;;;;;5074187;28;20424;-55